ADDS METAR Data INFO
IDs: Format: Raw Decoded Include TAF

Data at: 0349 UTC 18 Oct 2017

KAKO 180253Z AUTO 21011KT 10SM CLR 14/M07 A3005 RMK AO2 SLP147 T01441072 58003
KAKO 180153Z AUTO 20006KT 10SM CLR 14/M08 A3006 RMK AO2 SLP156 T01391078
KAKO 180053Z AUTO 30004KT 10SM CLR 18/M10 A3006 RMK AO2 SLP155 T01831100
KAKO 172353Z AUTO 28005KT 10SM CLR 20/M07 A3006 RMK AO2 SLP150 T02001067 10261 20200 56007
KAKO 172253Z AUTO 24009KT 10SM CLR 24/M11 A3006 RMK AO2 SLP139 T02441106
KAKO 172153Z AUTO 19007KT 10SM CLR 26/M12 A3007 RMK AO2 SLP145 T02561122
KAKO 172053Z AUTO 22009KT 10SM CLR 26/M11 A3009 RMK AO2 SLP149 T02561111 58031
KAKO 171953Z AUTO 20013KT 10SM CLR 25/M09 A3012 RMK AO2 SLP159 T02501094
KAKO 171853Z AUTO 20010KT 10SM CLR 24/M10 A3017 RMK AO2 SLP182 T02391100
KAKO 171753Z AUTO 25011KT 10SM CLR 22/M07 A3019 RMK AO2 SLP178 T02171072 10217 20033 58012
KAKO 171653Z AUTO 27011KT 10SM CLR 18/M07 A3021 RMK AO2 SLP194 T01831067
KAKO 171253Z AUTO 27013KT 10SM CLR 04/M07 A3022 RMK AO2 SLP219 T00441067 $
KAKO 171153Z AUTO 28011KT 10SM CLR 05/M07 A3022 RMK AO2 SLP202 T00501072 10144 20044 55000 $
KAKO 171053Z AUTO 25008KT 10SM CLR 07/M07 A3021 RMK AO2 SLP194 T00721072 $
KAKO 170953Z AUTO 25009KT 10SM CLR 06/M06 A3021 RMK AO2 SLP198 T00561061 $
KAKO 170853Z AUTO 27011KT 10SM CLR 06/M06 A3022 RMK AO2 SLP198 T00561056 57002 $
KAKO 170753Z AUTO 27005KT 10SM CLR 07/M07 A3022 RMK AO2 SLP200 T00721067 $
KAKO 170653Z AUTO 24007KT 10SM CLR 04/M06 A3022 RMK AO2 SLP207 T00441056 402560044 $
KAKO 170553Z AUTO 00000KT 10SM CLR 14/M10 A3023 RMK AO2 SLP192 T01441100 10233 20083 51005 $
KAKO 170453Z AUTO 03003KT 10SM CLR 13/M09 A3022 RMK AO2 SLP203 T01281089 $
KAKO 170353Z AUTO 03009KT 10SM CLR 08/M06 A3022 RMK AO2 SLP214 T00831061 $
KAKO 170253Z AUTO 04008KT 10SM CLR 14/M10 A3021 RMK AO2 SLPNO T01441100 51015 $
KAKO 170153Z AUTO 03005KT 10SM CLR 15/M08 A3020 RMK AO2 SLP205 T01501083 TSNO $
KAKO 162353Z AUTO 00000KT 10SM CLR 23/M11 A3016 RMK AO2 SLP182 T02331111 10256 20211 58002 $
KAKO 162053Z AUTO 30009KT 10SM CLR 25/M09 A3017 RMK AO2 SLP177 T02501094 56023 $
KAKO 161953Z AUTO 28009KT 10SM CLR 23/M04 A3019 RMK AO2 SLP185 T02331044 $
KAKO 161853Z AUTO 27008KT 10SM CLR 22/M06 A3022 RMK AO2 SLP200 T02171061 $
KAKO 161653Z AUTO 25004KT 10SM CLR 16/M04 A3027 RMK AO2 SLP228 T01561039 $
KAKO 161553Z AUTO 26007KT 10SM CLR 13/M03 A3028 RMK AO2 SLP236 T01331033 $